createdAt,value
2019-02-14T00:02:39.842Z,31.85
2019-02-14T00:07:45.103Z,30.08
2019-02-14T00:12:50.387Z,34.25
2019-02-14T00:17:55.655Z,34.60
2019-02-14T00:23:00.890Z,33.75
2019-02-14T00:28:06.311Z,33.98
2019-02-14T00:33:11.612Z,36.25
2019-02-14T00:38:16.936Z,38.40
2019-02-14T00:43:22.191Z,35.90
2019-02-14T00:48:27.470Z,35.73
2019-02-14T00:53:32.730Z,38.65
2019-02-14T00:58:38.006Z,38.63
2019-02-14T01:03:43.324Z,46.85
2019-02-14T01:08:49.625Z,42.48
2019-02-14T01:13:54.887Z,37.30
2019-02-14T01:19:00.231Z,42.03
2019-02-14T01:24:05.540Z,43.73
2019-02-14T01:29:10.832Z,42.75
2019-02-14T01:34:16.133Z,41.40
2019-02-14T01:39:21.749Z,42.62
2019-02-14T01:44:27.047Z,41.08
2019-02-14T01:49:32.361Z,38.73
2019-02-14T01:54:37.708Z,45.20
2019-02-14T01:59:42.942Z,41.88
2019-02-14T02:04:48.226Z,46.35
2019-02-14T02:09:53.539Z,42.48
2019-02-14T02:14:59.119Z,38.78
2019-02-14T02:20:06.573Z,38.20
2019-02-14T02:25:12.335Z,33.33
2019-02-14T02:30:17.619Z,45.05
2019-02-14T02:35:22.914Z,40.70
2019-02-14T02:40:28.219Z,40.48
2019-02-14T02:45:33.516Z,47.43
2019-02-14T02:50:38.981Z,41.58
2019-02-14T02:55:44.281Z,43.25
2019-02-14T03:00:49.603Z,34.85
2019-02-14T03:05:54.899Z,40.30
2019-02-14T03:11:00.216Z,40.83
2019-02-14T03:16:05.570Z,44.25
2019-02-14T03:21:10.893Z,44.42
2019-02-14T03:26:16.199Z,44.33
2019-02-14T03:31:21.500Z,42.45
2019-02-14T03:36:26.873Z,34.08
2019-02-14T03:41:32.187Z,36.58
2019-02-14T03:46:37.476Z,39.25
2019-02-14T03:51:42.785Z,34.18
2019-02-14T03:56:48.072Z,37.35
2019-02-14T04:01:53.379Z,39.40
2019-02-14T04:06:58.747Z,36.30
2019-02-14T04:12:04.053Z,36.30
2019-02-14T04:17:09.330Z,37.03
2019-02-14T04:22:14.652Z,33.80
2019-02-14T04:27:19.960Z,30.25
2019-02-14T04:32:25.350Z,32.95
2019-02-14T04:37:30.647Z,33.10
2019-02-14T04:42:35.934Z,32.55
2019-02-14T04:47:41.243Z,34.78
2019-02-14T04:52:46.536Z,35.73
2019-02-14T04:57:51.828Z,30.88
2019-02-14T05:02:57.186Z,35.50
2019-02-14T05:08:02.489Z,35.20
2019-02-14T05:13:07.780Z,40.40
2019-02-14T05:18:13.121Z,36.15
2019-02-14T05:23:18.627Z,36.30
2019-02-14T05:28:24.106Z,36.00
2019-02-14T05:33:29.484Z,39.25
2019-02-14T05:38:34.802Z,33.95
2019-02-14T05:43:40.112Z,38.00
2019-02-14T05:48:45.432Z,45.58
2019-02-14T05:53:50.718Z,42.30
2019-02-14T05:58:56.356Z,40.78
2019-02-14T06:04:01.909Z,42.95
2019-02-14T06:09:07.294Z,43.58
2019-02-14T06:14:12.616Z,37.42
2019-02-14T06:19:19.738Z,40.98
2019-02-14T06:24:25.965Z,38.95
2019-02-14T06:29:31.254Z,42.38
2019-02-14T06:34:36.558Z,55.43
2019-02-14T06:39:41.856Z,59.90
2019-02-14T06:44:47.171Z,58.35
2019-02-14T06:49:52.469Z,47.60
2019-02-14T06:54:57.856Z,37.30
2019-02-14T07:00:03.627Z,37.78
2019-02-14T07:05:10.388Z,41.10
2019-02-14T07:10:15.714Z,40.38
2019-02-14T07:15:20.997Z,37.23
2019-02-14T07:20:27.366Z,34.15
2019-02-14T07:25:32.661Z,32.23
2019-02-14T07:30:37.975Z,34.18
2019-02-14T07:35:43.285Z,30.05
2019-02-14T07:40:48.584Z,33.23
2019-02-14T07:45:54.996Z,32.10
2019-02-14T07:51:00.334Z,32.55
2019-02-14T07:56:05.711Z,37.93
2019-02-14T08:01:11.008Z,35.05
2019-02-14T08:06:16.391Z,33.70
2019-02-14T08:11:21.711Z,31.70
2019-02-14T08:16:27.013Z,39.15
2019-02-14T08:21:32.319Z,38.08
2019-02-14T08:26:37.612Z,47.55
2019-02-14T08:31:42.915Z,43.28
2019-02-14T08:36:48.193Z,38.63
2019-02-14T08:41:53.526Z,41.55
2019-02-14T08:46:59.072Z,40.88
2019-02-14T08:52:04.369Z,33.95
2019-02-14T08:57:09.672Z,31.60
2019-02-14T09:02:16.007Z,33.00
2019-02-14T09:07:21.294Z,41.88
2019-02-14T09:12:27.672Z,76.70
2019-02-14T09:17:32.970Z,48.00
2019-02-14T09:22:38.286Z,26.95
2019-02-14T09:27:43.677Z,155.63
2019-02-14T09:32:49.239Z,74.92
2019-02-14T09:38:02.819Z,33.48
2019-02-14T09:43:01.471Z,29.60
2019-02-14T09:48:06.788Z,29.87
2019-02-14T09:53:12.372Z,35.65
2019-02-14T09:58:17.717Z,23.57
2019-02-14T10:03:23.011Z,31.65
2019-02-14T10:08:28.321Z,23.57
2019-02-14T10:13:34.170Z,27.13
2019-02-14T10:18:39.528Z,25.30
2019-02-14T10:23:44.819Z,24.00
2019-02-14T10:28:50.134Z,25.08
2019-02-14T10:33:55.455Z,24.02
2019-02-14T10:39:00.750Z,21.33
2019-02-14T10:44:06.121Z,17.80
2019-02-14T10:49:11.413Z,17.32
2019-02-14T10:54:16.732Z,14.80
2019-02-14T10:59:22.027Z,14.63
2019-02-14T11:04:27.395Z,12.28
2019-02-14T11:09:32.706Z,11.70
2019-02-14T11:14:38.098Z,12.40
2019-02-14T11:19:43.417Z,17.95
2019-02-14T11:24:48.750Z,18.32
2019-02-14T11:29:54.252Z,17.10
2019-02-14T11:34:59.553Z,14.85
2019-02-14T11:40:07.601Z,12.68
2019-02-14T11:45:20.743Z,13.38
2019-02-14T11:50:26.050Z,14.68
2019-02-14T11:55:31.371Z,12.93
2019-02-14T12:00:36.686Z,12.40
2019-02-14T12:05:41.974Z,12.65
2019-02-14T12:10:47.362Z,14.40
2019-02-14T12:15:52.664Z,19.48
2019-02-14T12:20:59.517Z,34.10
2019-02-14T12:26:05.801Z,57.83
2019-02-14T12:31:11.267Z,29.82
2019-02-14T12:36:16.573Z,34.80
2019-02-14T12:41:21.877Z,31.12
2019-02-14T12:46:27.183Z,28.92
2019-02-14T12:51:32.519Z,29.05
2019-02-14T12:56:37.813Z,27.13
2019-02-14T13:01:43.105Z,33.92
2019-02-14T13:06:48.406Z,35.83
2019-02-14T13:11:53.845Z,34.45
2019-02-14T13:16:59.137Z,33.95
2019-02-14T13:22:04.630Z,36.63
2019-02-14T13:27:09.951Z,36.98
2019-02-14T13:32:15.320Z,32.63
2019-02-14T13:37:20.645Z,37.83
2019-02-14T13:42:25.936Z,36.20
2019-02-14T13:47:32.089Z,38.17
2019-02-14T13:52:37.418Z,39.40
2019-02-14T13:57:42.795Z,34.55
2019-02-14T14:02:48.079Z,46.13
2019-02-14T14:07:53.383Z,58.17
2019-02-14T14:12:58.702Z,47.50
2019-02-14T14:18:04.023Z,41.92
2019-02-14T14:23:09.328Z,61.55
2019-02-14T14:28:14.621Z,69.17
2019-02-14T14:33:19.945Z,51.75
2019-02-14T14:38:25.249Z,46.30
2019-02-14T14:43:35.141Z,51.33
2019-02-14T14:48:40.975Z,61.63
2019-02-14T14:53:46.272Z,58.02
2019-02-14T14:58:51.569Z,48.90
2019-02-14T15:03:56.874Z,51.83
2019-02-14T15:09:02.170Z,49.13
2019-02-14T15:14:08.663Z,54.83
2019-02-14T15:19:13.966Z,48.92
2019-02-14T15:24:19.281Z,58.10
2019-02-14T15:29:24.833Z,72.12
2019-02-14T15:34:31.150Z,81.28
2019-02-14T15:39:36.615Z,87.78
2019-02-14T15:44:41.998Z,97.75
2019-02-14T15:49:49.375Z,75.75
2019-02-14T15:54:55.606Z,67.20
2019-02-14T16:00:01.428Z,61.55
2019-02-14T16:05:07.493Z,62.08
2019-02-14T16:10:18.603Z,61.92
2019-02-14T16:15:19.755Z,65.50
2019-02-14T16:20:25.124Z,61.83
2019-02-14T16:25:30.515Z,61.68
2019-02-14T16:30:35.812Z,53.23
2019-02-14T16:35:41.198Z,60.10
2019-02-14T16:40:46.498Z,52.62
2019-02-14T16:45:51.791Z,51.53
2019-02-14T16:50:57.095Z,54.95
2019-02-14T16:56:02.491Z,51.75
2019-02-14T17:01:07.819Z,55.15
2019-02-14T17:06:13.121Z,56.02
2019-02-14T17:11:18.422Z,56.88
2019-02-14T17:16:23.728Z,56.28
2019-02-14T17:21:29.039Z,53.02
2019-02-14T17:26:34.345Z,76.85
2019-02-14T17:31:40.027Z,60.33
2019-02-14T17:36:45.319Z,85.45
2019-02-14T17:41:50.608Z,61.13
2019-02-14T17:46:55.923Z,96.17
2019-02-14T17:52:01.229Z,49.75
2019-02-14T17:57:06.589Z,42.05
2019-02-14T18:02:12.171Z,41.05
2019-02-14T18:07:17.462Z,60.15
2019-02-14T18:12:22.774Z,48.60
2019-02-14T18:17:28.432Z,48.70
2019-02-14T18:22:33.727Z,40.50
2019-02-14T18:27:39.023Z,42.43
2019-02-14T18:32:44.343Z,41.63
2019-02-14T18:37:49.722Z,41.30
2019-02-14T18:42:55.037Z,40.10
2019-02-14T18:48:00.341Z,42.48
2019-02-14T18:53:05.710Z,37.93
2019-02-14T18:58:10.997Z,43.83
2019-02-14T19:03:16.298Z,44.95
2019-02-14T19:08:21.626Z,38.78
2019-02-14T19:13:27.488Z,43.30
2019-02-14T19:18:32.875Z,47.15
2019-02-14T19:23:38.175Z,38.95
2019-02-14T19:28:43.483Z,47.67
2019-02-14T19:33:48.850Z,47.20
2019-02-14T19:38:54.322Z,49.30
2019-02-14T19:43:59.631Z,48.02
2019-02-14T19:49:05.029Z,44.27
2019-02-14T19:54:10.408Z,52.75
2019-02-14T19:59:15.905Z,47.67
2019-02-14T20:04:22.295Z,46.58
2019-02-14T20:09:27.726Z,51.40
2019-02-14T20:14:33.088Z,48.68
2019-02-14T20:19:38.377Z,53.00
2019-02-14T20:24:43.752Z,46.35
2019-02-14T20:29:50.163Z,55.70
2019-02-14T20:34:55.494Z,50.03
2019-02-14T20:40:00.883Z,51.70
2019-02-14T20:45:09.094Z,54.20
2019-02-14T20:50:17.138Z,50.73
2019-02-14T20:55:26.684Z,67.85
2019-02-14T21:00:34.032Z,74.07
2019-02-14T21:05:39.389Z,57.05
2019-02-14T21:10:44.994Z,58.15
2019-02-14T21:15:50.361Z,61.83
2019-02-14T21:20:55.655Z,57.13
2019-02-14T21:26:00.968Z,60.30
2019-02-14T21:31:07.256Z,62.03
2019-02-14T21:36:12.567Z,63.08
2019-02-14T21:41:17.883Z,66.15
2019-02-14T21:46:23.179Z,63.95
2019-02-14T21:51:28.505Z,68.75
2019-02-14T21:56:33.792Z,64.32
2019-02-14T22:01:39.137Z,62.40
2019-02-14T22:06:44.418Z,60.88
2019-02-14T22:11:50.810Z,66.70
2019-02-14T22:16:56.097Z,63.25
2019-02-14T22:22:01.387Z,67.78
2019-02-14T22:27:06.719Z,66.00
2019-02-14T22:32:13.100Z,57.85
2019-02-14T22:37:18.636Z,57.48
2019-02-14T22:42:24.017Z,48.28
2019-02-14T22:47:29.396Z,59.27
2019-02-14T22:52:34.750Z,53.02
2019-02-14T22:57:40.318Z,57.33
2019-02-14T23:02:45.629Z,59.95
2019-02-14T23:07:50.933Z,62.80
2019-02-14T23:12:56.407Z,59.13
2019-02-14T23:18:01.827Z,64.25
2019-02-14T23:23:07.202Z,68.20
2019-02-14T23:28:12.785Z,64.30
2019-02-14T23:33:18.084Z,58.25
2019-02-14T23:38:23.680Z,62.50
2019-02-14T23:43:29.116Z,62.95
2019-02-14T23:48:34.662Z,59.63
2019-02-14T23:53:40.011Z,60.03
2019-02-14T23:58:46.370Z,57.35
